Time;durP1;ratioP1;P1;durP2;ratioP2;P2;SDS_P1;SDS_P2;PMS_P1;PMS_P2;Temp;Humidity;BMP_temperature;BMP_pressure;BME280_temperature;BME280_humidity;BME280_pressure;Samples;Min_cycle;Max_cycle;Signal;HPM_P1;HPM_P2
2022/04/13 00:01:00;;;;;;;7.72;2.08;;;13.00;93.50;;;;;;5082654;28;20575;-66
2022/04/13 00:03:26;;;;;;;11.73;2.85;;;13.00;93.20;;;;;;5081253;28;20062;-66
2022/04/13 00:05:52;;;;;;;6.22;2.13;;;13.00;93.40;;;;;;5081511;28;20097;-66
2022/04/13 00:08:18;;;;;;;11.88;2.42;;;12.90;93.40;;;;;;5082571;28;20556;-66
2022/04/13 00:10:44;;;;;;;15.38;3.50;;;12.90;93.50;;;;;;5080210;28;20041;-66
2022/04/13 00:13:10;;;;;;;10.95;2.95;;;12.90;93.60;;;;;;5081369;28;20032;-66
2022/04/13 00:15:37;;;;;;;10.55;2.88;;;12.90;93.60;;;;;;5082040;28;20377;-66
2022/04/13 00:18:07;;;;;;;8.30;3.05;;;12.90;93.60;;;;;;5080273;28;20535;-66
2022/04/13 00:20:34;;;;;;;7.57;2.90;;;12.90;93.80;;;;;;5082896;28;20149;-66
2022/04/13 00:23:00;;;;;;;7.25;2.85;;;12.70;93.60;;;;;;5086636;28;20032;-66
2022/04/13 00:25:25;;;;;;;10.65;2.70;;;12.70;93.70;;;;;;5084568;28;20047;-66
2022/04/13 00:27:51;;;;;;;5.53;2.20;;;12.70;94.10;;;;;;5085558;28;20437;-66
2022/04/13 00:30:17;;;;;;;9.75;2.65;;;12.80;94.50;;;;;;5086600;28;20067;-66
2022/04/13 00:32:43;;;;;;;9.88;2.63;;;12.70;94.00;;;;;;5084590;28;20040;-66
2022/04/13 00:35:09;;;;;;;11.40;3.63;;;12.60;94.00;;;;;;5083568;28;20162;-66
2022/04/13 00:37:37;;;;;;;7.45;2.33;;;;;;;;;;5086146;28;20037;-66
2022/04/13 00:40:04;;;;;;;7.65;2.50;;;12.40;94.20;;;;;;5084433;28;20517;-66
2022/04/13 00:42:30;;;;;;;8.02;2.58;;;12.50;94.30;;;;;;5096600;28;20454;-66
2022/04/13 00:44:56;;;;;;;8.70;2.65;;;12.50;94.40;;;;;;5096934;28;20688;-66
2022/04/13 00:47:22;;;;;;;11.70;2.40;;;12.60;94.10;;;;;;5096460;28;20130;-66
2022/04/13 00:49:48;;;;;;;10.73;2.88;;;12.60;94.40;;;;;;5083594;28;20392;-66
2022/04/13 00:52:15;;;;;;;12.32;3.65;;;12.50;94.50;;;;;;5072205;28;20045;-66
2022/04/13 00:54:45;;;;;;;9.00;2.33;;;12.60;94.30;;;;;;5074550;28;20075;-66
2022/04/13 00:57:11;;;;;;;14.13;2.75;;;12.60;94.20;;;;;;5076271;28;20037;-66
2022/04/13 00:59:40;;;;;;;9.75;2.50;;;12.50;94.50;;;;;;5076336;28;20115;-66
2022/04/13 01:02:08;;;;;;;10.35;2.80;;;12.40;94.60;;;;;;5076067;28;20123;-66
2022/04/13 01:04:35;;;;;;;16.65;3.10;;;12.40;94.70;;;;;;5076176;28;20036;-66
2022/04/13 01:07:03;;;;;;;11.10;2.60;;;12.30;94.80;;;;;;5075990;28;20509;-66
2022/04/13 01:09:30;;;;;;;14.35;2.88;;;12.10;95.20;;;;;;5075768;28;20051;-66
2022/04/13 01:11:56;;;;;;;9.50;2.45;;;12.20;95.10;;;;;;5075698;28;20049;-66
2022/04/13 01:14:21;;;;;;;11.82;3.03;;;12.20;95.20;;;;;;5075904;28;20063;-66
2022/04/13 01:16:47;;;;;;;5.82;1.90;;;12.10;95.60;;;;;;5075999;28;20036;-66
2022/04/13 01:19:17;;;;;;;11.43;2.58;;;12.10;95.60;;;;;;5075852;28;20076;-66
2022/04/13 01:21:52;;;;;;;10.18;2.58;;;12.10;95.40;;;;;;5075842;28;20113;-66
2022/04/13 01:24:19;;;;;;;10.40;2.42;;;12.10;98.10;;;;;;5075857;28;20048;-66
2022/04/13 01:26:46;;;;;;;14.82;2.78;;;12.20;95.80;;;;;;5075515;28;20036;-66
2022/04/13 01:29:12;;;;;;;10.82;2.63;;;12.10;95.90;;;;;;5075732;28;20040;-66
2022/04/13 01:31:39;;;;;;;17.08;3.40;;;11.80;95.90;;;;;;5075516;28;20048;-66
2022/04/13 01:34:05;;;;;;;11.35;3.22;;;11.90;95.90;;;;;;5075578;28;20040;-66
2022/04/13 01:36:33;;;;;;;10.15;2.72;;;11.90;96.10;;;;;;5075802;28;20446;-66
2022/04/13 01:38:59;;;;;;;9.15;2.92;;;11.90;96.10;;;;;;5075489;28;20053;-66
2022/04/13 01:41:25;;;;;;;7.13;2.30;;;11.90;96.00;;;;;;5075274;28;20079;-66
2022/04/13 01:43:51;;;;;;;9.65;2.92;;;11.90;96.00;;;;;;5075248;28;20029;-66
2022/04/13 01:46:17;;;;;;;13.20;2.92;;;11.90;96.30;;;;;;5075260;28;20098;-66
2022/04/13 01:48:42;;;;;;;11.73;3.55;;;11.80;96.30;;;;;;5075308;28;20090;-66
2022/04/13 01:51:09;;;;;;;8.07;2.75;;;11.80;96.40;;;;;;5075154;28;20419;-66
2022/04/13 01:53:35;;;;;;;11.18;2.83;;;11.90;96.40;;;;;;5074923;28;20040;-66
2022/04/13 01:56:01;;;;;;;10.43;2.88;;;11.90;96.00;;;;;;5074587;28;20051;-66
2022/04/13 01:58:27;;;;;;;9.15;2.70;;;12.00;95.60;;;;;;5074970;28;20029;-65
2022/04/13 02:00:56;;;;;;;13.65;2.70;;;12.00;95.90;;;;;;5074933;28;20404;-66
2022/04/13 02:03:26;;;;;;;6.07;2.20;;;11.90;96.00;;;;;;5075083;28;20040;-66
2022/04/13 02:05:53;;;;;;;8.85;2.40;;;11.70;96.30;;;;;;5074906;28;20044;-66
2022/04/13 02:08:20;;;;;;;11.25;2.63;;;11.70;96.10;;;;;;5074277;28;20040;-66
2022/04/13 02:10:46;;;;;;;13.48;2.30;;;11.60;96.10;;;;;;5074291;28;20063;-66
2022/04/13 02:13:12;;;;;;;7.95;2.30;;;11.70;96.00;;;;;;5074666;28;20033;-66
2022/04/13 02:15:38;;;;;;;13.82;3.00;;;11.80;95.80;;;;;;5074870;28;20040;-66
2022/04/13 02:18:05;;;;;;;8.88;2.83;;;11.70;96.00;;;;;;5074678;28;20096;-66
2022/04/13 02:20:31;;;;;;;12.98;3.00;;;11.60;96.10;;;;;;5074932;28;20591;-66
2022/04/13 02:22:57;;;;;;;13.23;3.88;;;11.50;96.20;;;;;;5074771;28;20029;-66
2022/04/13 02:25:23;;;;;;;13.73;3.00;;;11.50;96.30;;;;;;5076860;28;20036;-66
2022/04/13 02:27:48;;;;;;;21.15;2.95;;;11.50;96.30;;;;;;5074257;28;20406;-66
2022/04/13 02:30:15;;;;;;;20.42;2.70;;;11.40;96.40;;;;;;5074543;28;20036;-66
2022/04/13 02:32:44;;;;;;;12.50;2.70;;;11.40;96.50;;;;;;5074433;28;20503;-66
2022/04/13 02:35:10;;;;;;;8.38;2.63;;;11.30;96.60;;;;;;5074183;28;20514;-66
2022/04/13 02:37:36;;;;;;;11.02;2.70;;;11.30;96.70;;;;;;5074400;28;20044;-66
2022/04/13 02:40:02;;;;;;;13.65;2.58;;;11.20;96.80;;;;;;5074535;28;20049;-66
2022/04/13 02:42:35;;;;;;;9.52;2.70;;;11.10;97.10;;;;;;5074833;28;20051;-66
2022/04/13 02:45:02;;;;;;;11.35;3.03;;;11.10;97.50;;;;;;5074069;28;20036;-66
2022/04/13 02:47:28;;;;;;;10.63;2.90;;;11.10;97.00;;;;;;5074092;28;20051;-66
2022/04/13 02:49:56;;;;;;;12.50;2.60;;;11.10;97.00;;;;;;5074085;28;20178;-66
2022/04/13 02:52:25;;;;;;;9.77;3.03;;;11.20;96.80;;;;;;5073777;28;20044;-66
2022/04/13 02:54:51;;;;;;;10.10;2.53;;;11.30;96.80;;;;;;5073988;28;20033;-66
2022/04/13 02:57:17;;;;;;;13.88;2.35;;;11.30;96.60;;;;;;5074144;28;20048;-65
2022/04/13 02:59:46;;;;;;;8.75;2.33;;;11.20;96.90;;;;;;5073733;28;20123;-66
2022/04/13 03:02:14;;;;;;;15.27;2.85;;;11.20;96.80;;;;;;5073899;28;20044;-66
2022/04/13 03:04:42;;;;;;;10.90;2.47;;;11.10;97.10;;;;;;5073923;28;20037;-66
2022/04/13 03:07:10;;;;;;;18.25;4.47;;;11.00;97.30;;;;;;5073580;28;20044;-66
2022/04/13 03:09:36;;;;;;;18.75;3.40;;;10.70;97.80;;;;;;5073531;28;20037;-66
2022/04/13 03:12:02;;;;;;;12.32;2.65;;;10.60;98.10;;;;;;5073304;28;20140;-66
2022/04/13 03:14:28;;;;;;;7.10;2.33;;;10.50;98.30;;;;;;5073233;28;20043;-66
2022/04/13 03:16:53;;;;;;;11.82;2.50;;;10.60;97.90;;;;;;5073118;28;20076;-66
2022/04/13 03:19:19;;;;;;;7.75;2.42;;;10.80;97.70;;;;;;5073484;28;20090;-66
2022/04/13 03:21:50;;;;;;;7.88;2.58;;;10.80;98.10;;;;;;5073516;28;20048;-66
2022/04/13 03:24:15;;;;;;;13.35;3.10;;;10.80;98.10;;;;;;5073466;28;20040;-66
2022/04/13 03:26:41;;;;;;;9.75;2.40;;;10.80;98.30;;;;;;5073321;28;20040;-66
2022/04/13 03:29:07;;;;;;;12.75;3.00;;;10.80;98.30;;;;;;5073528;28;20474;-66
2022/04/13 03:31:33;;;;;;;8.82;2.60;;;10.90;98.30;;;;;;5073305;28;20066;-66
2022/04/13 03:33:58;;;;;;;10.25;3.20;;;10.80;98.50;;;;;;5073413;28;20082;-66
2022/04/13 03:36:24;;;;;;;9.10;2.67;;;10.80;98.50;;;;;;5073250;28;20093;-66
2022/04/13 03:38:50;;;;;;;10.63;2.72;;;10.80;98.60;;;;;;5073293;28;20434;-65
2022/04/13 03:41:15;;;;;;;19.17;4.00;;;10.80;98.90;;;;;;5072978;28;20119;-66
2022/04/13 03:43:41;;;;;;;12.95;2.92;;;10.90;98.70;;;;;;5073189;28;20399;-66
2022/04/13 03:46:07;;;;;;;13.68;3.35;;;10.80;99.50;;;;;;5073382;28;20535;-66
2022/04/13 03:48:33;;;;;;;16.65;3.08;;;10.90;98.90;;;;;;5073333;28;20055;-65
2022/04/13 03:51:00;;;;;;;11.45;2.95;;;11.00;98.70;;;;;;5072894;28;20511;-65
2022/04/13 03:53:26;;;;;;;12.90;3.17;;;11.10;98.40;;;;;;5072808;28;20032;-66
2022/04/13 03:55:52;;;;;;;17.38;3.72;;;11.10;98.40;;;;;;5071773;28;20036;-66
2022/04/13 03:58:18;;;;;;;11.45;2.65;;;11.10;99.00;;;;;;5072561;28;20048;-66
2022/04/13 04:00:43;;;;;;;11.38;3.53;;;11.00;98.90;;;;;;5072905;28;20036;-65
2022/04/13 04:03:09;;;;;;;10.25;2.47;;;11.00;98.80;;;;;;5072876;28;20029;-66
2022/04/13 04:05:35;;;;;;;10.98;2.92;;;10.90;99.00;;;;;;5072857;28;20063;-66
2022/04/13 04:08:01;;;;;;;10.68;2.72;;;10.90;99.20;;;;;;5072840;28;20503;-66
2022/04/13 04:10:27;;;;;;;9.15;3.33;;;11.00;99.50;;;;;;5072761;28;20044;-66
2022/04/13 04:12:52;;;;;;;8.40;2.55;;;10.70;99.90;;;;;;5073081;28;20045;-66
2022/04/13 04:15:18;;;;;;;7.50;2.53;;;10.60;99.90;;;;;;5072810;28;20051;-66
2022/04/13 04:17:44;;;;;;;11.43;2.72;;;10.60;99.90;;;;;;5072658;28;20569;-66
2022/04/13 04:20:11;;;;;;;7.30;2.40;;;10.70;99.90;;;;;;5072771;28;20124;-65
2022/04/13 04:22:37;;;;;;;7.07;2.92;;;10.70;99.90;;;;;;5072897;28;20040;-66
2022/04/13 04:25:04;;;;;;;12.40;2.83;;;10.70;99.90;;;;;;5072526;28;20051;-66
2022/04/13 04:27:29;;;;;;;6.97;2.20;;;10.70;99.90;;;;;;5072861;28;20047;-66
2022/04/13 04:29:56;;;;;;;13.23;3.28;;;10.80;99.90;;;;;;5072556;28;20036;-66
2022/04/13 04:32:21;;;;;;;14.80;3.55;;;10.70;99.90;;;;;;5072551;28;20056;-66
2022/04/13 04:34:47;;;;;;;9.75;3.10;;;10.70;99.90;;;;;;5072481;28;20037;-66
2022/04/13 04:37:13;;;;;;;11.23;3.17;;;10.60;99.90;;;;;;5072372;28;20055;-66
2022/04/13 04:39:39;;;;;;;7.43;2.33;;;10.60;99.90;;;;;;5072262;28;20032;-66
2022/04/13 04:42:05;;;;;;;12.80;3.03;;;10.70;99.90;;;;;;5072241;28;20683;-66
2022/04/13 04:44:31;;;;;;;10.55;2.53;;;10.60;99.90;;;;;;5072548;28;20515;-65
2022/04/13 04:46:57;;;;;;;10.02;2.83;;;10.60;99.90;;;;;;5072509;28;20040;-65
2022/04/13 04:49:22;;;;;;;12.52;3.63;;;10.60;99.90;;;;;;5072556;28;20412;-66
2022/04/13 04:51:48;;;;;;;10.25;2.88;;;10.60;99.90;;;;;;5072364;28;20415;-66
2022/04/13 04:54:14;;;;;;;9.30;2.75;;;10.60;99.90;;;;;;5070181;28;20380;-66
2022/04/13 04:56:40;;;;;;;10.45;3.15;;;10.60;99.90;;;;;;5070238;28;20153;-66
2022/04/13 04:59:05;;;;;;;13.63;5.50;;;10.40;99.90;;;;;;5071667;28;20041;-66
2022/04/13 05:01:32;;;;;;;20.50;4.65;;;10.30;99.90;;;;;;5072432;28;20051;-66
2022/04/13 05:03:58;;;;;;;13.48;3.08;;;10.40;99.90;;;;;;5078204;28;20036;-66
2022/04/13 05:06:28;;;;;;;14.05;3.22;;;10.40;99.90;;;;;;5073467;28;20039;-65
2022/04/13 05:08:57;;;;;;;6.00;2.53;;;10.40;99.90;;;;;;5075067;28;20060;-66
2022/04/13 05:11:23;;;;;;;11.63;3.08;;;10.30;99.90;;;;;;5075347;28;20040;-66
2022/04/13 05:13:50;;;;;;;9.35;2.80;;;10.30;99.90;;;;;;5075236;28;20040;-66
2022/04/13 05:16:17;;;;;;;11.13;2.72;;;10.30;99.90;;;;;;5074931;28;20040;-66
2022/04/13 05:18:45;;;;;;;8.68;2.78;;;10.40;99.90;;;;;;5074958;28;20037;-66
2022/04/13 05:21:12;;;;;;;11.55;3.33;;;10.40;99.90;;;;;;5075253;28;20443;-66
2022/04/13 05:23:37;;;;;;;14.57;2.78;;;10.20;99.90;;;;;;5075099;28;20040;-66
2022/04/13 05:26:04;;;;;;;12.48;3.20;;;10.10;99.90;;;;;;5074998;28;20044;-66
2022/04/13 05:28:30;;;;;;;16.42;3.75;;;10.10;99.90;;;;;;5074784;28;20035;-66
2022/04/13 05:30:56;;;;;;;29.75;19.70;;;10.10;99.90;;;;;;5079089;28;20044;-66
2022/04/13 05:33:22;;;;;;;18.40;6.55;;;10.10;99.90;;;;;;5084630;28;20032;-66
2022/04/13 05:35:49;;;;;;;9.30;2.85;;;10.20;99.90;;;;;;5093352;28;20112;-66
2022/04/13 05:38:15;;;;;;;13.43;3.40;;;10.10;99.90;;;;;;5094759;28;20527;-66
2022/04/13 05:40:41;;;;;;;12.15;3.70;;;10.10;99.90;;;;;;5095015;28;20047;-66
2022/04/13 05:43:08;;;;;;;14.63;3.55;;;10.10;99.90;;;;;;5094738;28;20040;-66
2022/04/13 05:45:33;;;;;;;17.52;4.03;;;10.10;99.90;;;;;;5094837;28;20048;-66
2022/04/13 05:47:59;;;;;;;18.17;2.90;;;10.30;99.90;;;;;;5091902;28;20047;-66
2022/04/13 05:50:25;;;;;;;14.63;3.55;;;10.40;99.90;;;;;;5074383;28;20434;-66
2022/04/13 05:52:51;;;;;;;14.43;3.17;;;10.50;99.90;;;;;;5076097;28;20082;-66
2022/04/13 05:55:17;;;;;;;12.70;3.60;;;10.50;99.90;;;;;;5087734;28;20036;-66
2022/04/13 05:57:43;;;;;;;18.13;3.35;;;10.60;99.90;;;;;;5077135;28;20059;-65
2022/04/13 06:00:11;;;;;;;12.02;3.17;;;10.60;99.90;;;;;;5074868;28;20033;-66
2022/04/13 06:02:37;;;;;;;11.25;3.33;;;;;;;;;;5075260;28;20032;-66
2022/04/13 06:05:04;;;;;;;11.48;3.42;;;10.40;99.90;;;;;;5075013;28;20068;-66
2022/04/13 06:07:30;;;;;;;17.35;4.15;;;10.60;99.90;;;;;;5074986;28;20057;-66
2022/04/13 06:10:01;;;;;;;16.98;3.25;;;10.50;99.90;;;;;;5071526;28;20033;-66
2022/04/13 06:12:27;;;;;;;;;;;;;;;;;;5072454;28;20115;-66
2022/04/13 06:14:59;;;;;;;14.88;3.50;;;10.30;99.90;;;;;;5080895;28;19908;-66
2022/04/13 06:17:25;;;;;;;9.77;2.72;;;10.20;99.90;;;;;;5071297;28;20514;-67
2022/04/13 06:19:50;;;;;;;12.15;3.30;;;10.30;99.90;;;;;;5077428;28;20044;-66
2022/04/13 06:22:16;;;;;;;10.73;3.15;;;10.20;99.90;;;;;;5083852;28;20048;-66
2022/04/13 06:24:42;;;;;;;13.27;3.13;;;10.40;99.90;;;;;;5070353;28;20040;-66
2022/04/13 06:27:08;;;;;;;12.00;2.95;;;10.50;99.90;;;;;;5067249;28;20087;-66
2022/04/13 06:29:33;;;;;;;8.00;2.50;;;10.50;99.90;;;;;;5070720;28;20491;-66
2022/04/13 06:32:00;;;;;;;16.38;3.85;;;10.50;99.90;;;;;;5069648;28;20055;-66
2022/04/13 06:34:26;;;;;;;15.25;3.13;;;10.60;99.90;;;;;;5071722;28;20033;-66
2022/04/13 06:36:51;;;;;;;14.40;3.10;;;10.80;99.90;;;;;;5071171;28;20401;-66
2022/04/13 06:39:17;;;;;;;11.02;3.10;;;10.90;99.90;;;;;;5071749;28;20496;-66
2022/04/13 06:41:43;;;;;;;17.48;3.22;;;11.10;99.90;;;;;;5071340;28;20048;-66
2022/04/13 06:44:09;;;;;;;11.80;3.90;;;11.10;99.90;;;;;;5071482;28;20037;-66
2022/04/13 06:46:36;;;;;;;13.27;3.40;;;11.10;99.90;;;;;;5071711;28;20553;-66
2022/04/13 06:49:03;;;;;;;14.85;2.78;;;11.30;99.90;;;;;;5071240;28;20044;-68
2022/04/13 06:51:28;;;;;;;11.18;3.13;;;11.30;99.90;;;;;;5074142;28;20036;-67
2022/04/13 06:53:54;;;;;;;12.93;2.90;;;11.40;99.90;;;;;;5080058;28;20063;-67
2022/04/13 06:56:20;;;;;;;13.30;2.95;;;11.40;99.90;;;;;;5057475;28;20093;-67
2022/04/13 06:58:48;;;;;;;13.75;3.50;;;11.50;99.90;;;;;;5075475;28;20036;-67
2022/04/13 07:01:15;;;;;;;9.30;2.72;;;11.60;99.90;;;;;;5079527;28;20120;-67
2022/04/13 07:03:40;;;;;;;13.07;3.60;;;11.60;99.90;;;;;;5069825;28;20641;-68
2022/04/13 07:06:06;;;;;;;8.40;2.95;;;11.60;99.90;;;;;;5070439;28;20487;-67
2022/04/13 07:08:32;;;;;;;9.52;3.15;;;11.60;99.90;;;;;;5071185;28;20499;-67
2022/04/13 07:10:58;;;;;;;12.48;3.42;;;11.60;99.90;;;;;;5071374;28;20094;-67
2022/04/13 07:13:24;;;;;;;15.98;3.13;;;11.80;99.90;;;;;;5070577;28;20529;-67
2022/04/13 07:15:52;;;;;;;12.95;3.75;;;11.80;99.90;;;;;;5070947;28;20115;-67
2022/04/13 07:18:19;;;;;;;14.20;3.60;;;11.70;99.90;;;;;;5071362;28;20559;-66
2022/04/13 07:20:45;;;;;;;17.45;3.83;;;11.90;99.90;;;;;;5069245;28;20499;-66
2022/04/13 07:23:11;;;;;;;12.85;3.35;;;12.20;99.90;;;;;;5068840;28;20111;-66
2022/04/13 07:25:36;;;;;;;20.95;3.67;;;12.30;99.90;;;;;;5070107;28;20049;-66
2022/04/13 07:28:02;;;;;;;16.17;3.58;;;12.40;99.90;;;;;;5071015;28;20097;-66
2022/04/13 07:30:28;;;;;;;19.67;3.28;;;12.60;99.90;;;;;;5076962;28;20164;-67
2022/04/13 07:33:01;;;;;;;13.35;3.35;;;12.70;99.90;;;;;;5075178;28;20041;-65
2022/04/13 07:35:28;;;;;;;13.93;3.38;;;12.80;99.90;;;;;;5088868;28;20040;-66
2022/04/13 07:37:53;;;;;;;9.02;2.80;;;12.80;99.90;;;;;;5089869;28;20036;-66
2022/04/13 07:40:19;;;;;;;13.43;3.30;;;12.80;99.90;;;;;;5069266;28;20043;-66
2022/04/13 07:42:45;;;;;;;11.60;3.05;;;12.80;99.90;;;;;;5090104;28;20059;-66
2022/04/13 07:45:11;;;;;;;14.02;3.60;;;12.90;99.90;;;;;;5083251;28;20191;-66
2022/04/13 07:47:38;;;;;;;28.05;4.18;;;13.00;99.90;;;;;;5071034;28;20044;-65
2022/04/13 07:50:05;;;;;;;9.80;2.97;;;13.10;99.90;;;;;;5070857;28;20043;-66
2022/04/13 07:52:35;;;;;;;11.18;3.25;;;13.10;99.90;;;;;;5081092;28;20116;-66
2022/04/13 07:55:01;;;;;;;29.25;7.10;;;12.90;99.90;;;;;;5070317;28;20047;-65
2022/04/13 07:57:28;;;;;;;15.45;3.67;;;13.10;99.90;;;;;;5083764;28;20051;-65
2022/04/13 07:59:54;;;;;;;15.48;3.80;;;13.20;99.90;;;;;;5090385;28;20036;-66
2022/04/13 08:02:20;;;;;;;18.85;4.50;;;13.30;99.90;;;;;;5079207;28;20027;-65
2022/04/13 08:04:46;;;;;;;14.70;3.25;;;13.20;99.90;;;;;;5090821;28;20126;-65
2022/04/13 08:07:13;;;;;;;11.27;3.72;;;13.20;99.90;;;;;;5090103;28;20036;-65
2022/04/13 08:09:39;;;;;;;8.90;2.70;;;13.00;99.90;;;;;;5091148;28;20047;-66
2022/04/13 08:12:05;;;;;;;9.70;2.92;;;13.10;99.90;;;;;;5073756;28;20458;-65
2022/04/13 08:14:31;;;;;;;10.10;3.10;;;13.10;99.90;;;;;;5069623;28;20388;-65
2022/04/13 08:16:57;;;;;;;10.73;3.03;;;13.10;99.90;;;;;;5069921;28;20042;-65
2022/04/13 08:19:23;;;;;;;10.63;3.28;;;13.20;99.90;;;;;;5070573;28;20040;-65
2022/04/13 08:21:50;;;;;;;17.70;3.90;;;13.30;99.90;;;;;;5070554;28;20071;-66
2022/04/13 08:24:18;;;;;;;11.52;3.10;;;13.60;99.90;;;;;;5071203;28;20068;-65
2022/04/13 08:26:44;;;;;;;12.80;3.80;;;13.20;99.90;;;;;;5070676;28;20098;-66
2022/04/13 08:29:11;;;;;;;9.65;3.28;;;13.50;99.90;;;;;;5070254;28;20028;-65
2022/04/13 08:31:37;;;;;;;10.68;3.35;;;13.90;99.90;;;;;;5082218;28;20098;-66
2022/04/13 08:34:03;;;;;;;13.43;3.10;;;14.00;99.90;;;;;;5069964;28;20059;-66
2022/04/13 08:36:29;;;;;;;16.70;3.25;;;14.00;99.90;;;;;;5070038;28;20587;-66
2022/04/13 08:38:54;;;;;;;12.93;2.92;;;14.00;99.90;;;;;;5069487;28;20119;-66
2022/04/13 08:41:40;;;;;;;11.35;3.03;;;14.10;99.90;;;;;;5071661;28;20048;-65
2022/04/13 08:44:17;;;;;;;6.72;2.25;;;14.20;99.90;;;;;;5056700;28;20500;-66
2022/04/13 08:46:45;;;;;;;11.32;3.05;;;14.20;99.90;;;;;;5073687;28;20036;-65
2022/04/13 08:49:12;;;;;;;13.40;3.35;;;14.40;99.90;;;;;;5073846;28;20043;-65
2022/04/13 08:51:39;;;;;;;9.82;2.13;;;14.80;99.90;;;;;;5074318;28;20048;-66
2022/04/13 08:54:08;;;;;;;11.02;3.25;;;14.80;99.90;;;;;;5073249;28;20037;-66
2022/04/13 08:56:39;;;;;;;13.85;2.75;;;15.00;99.90;;;;;;5075990;28;20048;-66
2022/04/13 08:59:06;;;;;;;;;;;15.30;99.90;;;;;;5073166;28;20040;-65
2022/04/13 09:01:41;;;;;;;12.20;2.65;;;15.10;99.90;;;;;;5074502;28;19916;-65
2022/04/13 09:04:10;;;;;;;8.95;2.28;;;15.30;99.90;;;;;;5073456;28;20563;-66
2022/04/13 09:06:39;;;;;;;14.65;4.45;;;15.30;99.90;;;;;;5073295;28;20040;-66
2022/04/13 09:09:08;;;;;;;10.38;2.92;;;15.50;99.90;;;;;;5073299;28;20044;-66
2022/04/13 09:11:38;;;;;;;14.27;3.13;;;15.70;99.90;;;;;;5073653;28;20192;-66
2022/04/13 09:14:06;;;;;;;10.50;3.97;;;15.70;99.90;;;;;;5073897;28;20028;-65
2022/04/13 09:16:34;;;;;;;7.88;2.13;;;15.90;99.90;;;;;;5073707;28;20040;-66
2022/04/13 09:19:02;;;;;;;8.70;2.35;;;16.30;99.90;;;;;;5073581;28;20633;-66
2022/04/13 09:21:32;;;;;;;7.78;2.63;;;16.50;99.90;;;;;;5073627;28;20050;-66
2022/04/13 09:24:02;;;;;;;8.68;2.30;;;16.20;98.90;;;;;;5073404;28;20385;-66
2022/04/13 09:26:30;;;;;;;6.70;2.25;;;16.30;98.30;;;;;;5073631;28;20048;-66
2022/04/13 09:28:56;;;;;;;9.65;2.38;;;16.30;99.60;;;;;;5073649;28;20515;-66
2022/04/13 09:31:21;;;;;;;10.25;2.78;;;16.40;98.70;;;;;;5073555;28;20102;-66
2022/04/13 09:33:47;;;;;;;16.30;3.25;;;15.90;97.70;;;;;;5073966;28;20474;-66
2022/04/13 09:36:13;;;;;;;9.93;2.95;;;16.10;99.80;;;;;;5073695;28;20048;-66
2022/04/13 09:38:39;;;;;;;11.38;2.10;;;16.20;99.30;;;;;;5073341;28;20048;-66
2022/04/13 09:41:10;;;;;;;6.90;2.25;;;16.00;98.60;;;;;;5076172;28;21079;-66
2022/04/13 09:43:36;;;;;;;5.45;2.33;;;16.00;99.60;;;;;;5093713;28;20064;-66
2022/04/13 09:46:04;;;;;;;15.43;3.30;;;;;;;;;;5091477;28;20062;-66
2022/04/13 09:48:30;;;;;;;11.40;2.63;;;16.20;99.90;;;;;;5088830;28;20036;-66
2022/04/13 09:51:00;;;;;;;9.55;3.00;;;16.30;99.90;;;;;;5093200;28;20048;-66
2022/04/13 09:53:26;;;;;;;7.90;3.45;;;16.30;99.90;;;;;;5091941;28;20036;-66
2022/04/13 09:55:54;;;;;;;8.88;3.35;;;;;;;;;;5093098;28;20040;-66
2022/04/13 09:58:22;;;;;;;12.65;3.22;;;16.50;99.90;;;;;;5093585;28;20028;-66
2022/04/13 10:00:53;;;;;;;9.02;2.53;;;16.80;99.90;;;;;;5093167;28;20043;-66
2022/04/13 10:03:20;;;;;;;;;;;17.20;99.90;;;;;;5093778;28;20127;-66
2022/04/13 10:05:51;;;;;;;13.25;2.70;;;17.30;98.40;;;;;;5093104;28;19908;-66
2022/04/13 10:08:22;;;;;;;10.00;2.60;;;17.30;98.00;;;;;;5093617;28;20063;-66
2022/04/13 10:10:49;;;;;;;9.57;3.03;;;17.30;98.30;;;;;;5092744;28;20040;-65
2022/04/13 10:13:38;;;;;;;7.40;2.17;;;17.70;97.90;;;;;;5081630;28;20623;-66
2022/04/13 10:16:05;;;;;;;9.25;2.78;;;;;;;;;;5072629;28;20072;-67
2022/04/13 10:18:58;;;;;;;7.80;2.30;;;18.10;99.90;;;;;;5074881;28;20055;-67
2022/04/13 10:21:45;;;;;;;8.85;2.72;;;18.00;99.90;;;;;;5074861;28;20037;-66
2022/04/13 10:24:28;;;;;;;6.22;1.70;;;17.90;98.90;;;;;;5074756;28;20119;-66
2022/04/13 10:27:04;;;;;;;8.18;2.53;;;17.80;99.00;;;;;;5074658;28;20159;-66
2022/04/13 10:29:31;;;;;;;7.72;2.45;;;17.60;95.30;;;;;;5074336;28;20630;-66
2022/04/13 10:32:24;;;;;;;9.88;2.10;;;17.50;95.70;;;;;;5074083;28;20052;-66
2022/04/13 10:34:57;;;;;;;8.02;2.80;;;18.00;97.70;;;;;;5063782;28;20032;-66
2022/04/13 10:37:24;;;;;;;9.02;2.17;;;18.20;97.50;;;;;;5074459;28;20056;-66
2022/04/13 10:39:56;;;;;;;10.55;2.10;;;18.20;96.40;;;;;;5074384;28;20389;-66
2022/04/13 10:42:22;;;;;;;12.13;2.38;;;18.20;95.80;;;;;;5073848;28;20147;-66
2022/04/13 10:44:58;;;;;;;8.27;2.10;;;18.30;96.40;;;;;;5074565;28;20060;-66
2022/04/13 10:47:43;;;;;;;8.48;2.10;;;18.20;96.20;;;;;;5074362;28;20503;-66
2022/04/13 10:50:12;;;;;;;6.90;2.10;;;18.20;96.80;;;;;;5074279;28;20515;-66
2022/04/13 10:53:06;;;;;;;10.95;2.70;;;18.20;95.30;;;;;;5074119;28;20059;-66
2022/04/13 10:55:34;;;;;;;8.02;3.08;;;18.20;96.30;;;;;;5073964;28;20033;-66
2022/04/13 10:58:06;;;;;;;7.53;2.75;;;18.20;95.40;;;;;;5073701;28;20595;-66
2022/04/13 11:00:33;;;;;;;9.52;2.47;;;18.20;96.70;;;;;;5076313;28;20569;-66
2022/04/13 11:03:03;;;;;;;9.32;2.50;;;;;;;;;;5073816;28;20040;-66
2022/04/13 11:05:30;;;;;;;15.15;2.97;;;18.60;95.60;;;;;;5073653;28;20048;-66
2022/04/13 11:08:14;;;;;;;10.52;2.65;;;18.70;95.20;;;;;;5074037;28;20029;-66
2022/04/13 11:10:47;;;;;;;7.50;2.30;;;18.60;95.00;;;;;;5073426;28;20086;-66
2022/04/13 11:13:15;;;;;;;7.47;2.60;;;18.70;96.30;;;;;;5073285;28;20052;-66
2022/04/13 11:15:45;;;;;;;7.15;2.38;;;18.70;95.40;;;;;;5073401;28;20086;-66
2022/04/13 11:18:13;;;;;;;11.18;2.92;;;19.00;94.70;;;;;;5088968;28;20050;-66
2022/04/13 11:21:02;;;;;;;6.40;2.05;;;18.70;93.40;;;;;;5073493;28;20036;-66
2022/04/13 11:23:47;;;;;;;9.35;2.72;;;18.50;94.80;;;;;;5077836;28;20036;-66
2022/04/13 11:26:14;;;;;;;10.30;2.42;;;18.60;95.60;;;;;;5093886;28;20040;-66
2022/04/13 11:28:40;;;;;;;9.95;2.65;;;18.70;95.20;;;;;;5074183;28;20098;-66
2022/04/13 11:31:11;;;;;;;7.70;2.40;;;18.70;95.30;;;;;;5073561;28;20045;-66
2022/04/13 11:33:56;;;;;;;10.13;2.47;;;19.10;94.30;;;;;;5073425;28;20071;-65
2022/04/13 11:36:24;;;;;;;14.02;3.20;;;19.30;93.80;;;;;;5073257;28;20101;-65
2022/04/13 11:38:52;;;;;;;6.85;2.13;;;19.00;93.90;;;;;;5073267;28;20044;-66
2022/04/13 11:41:19;;;;;;;9.98;2.92;;;18.90;94.40;;;;;;5071980;28;20039;-66
2022/04/13 11:43:45;;;;;;;7.70;2.30;;;18.80;92.40;;;;;;5070973;28;20069;-66
2022/04/13 11:46:38;;;;;;;7.38;2.50;;;18.70;92.30;;;;;;5069671;28;20044;-66
2022/04/13 11:49:09;;;;;;;8.05;2.20;;;18.80;94.10;;;;;;5070323;28;20098;-66
2022/04/13 11:51:34;;;;;;;5.65;1.73;;;19.00;95.00;;;;;;5068976;28;20044;-66
2022/04/13 11:54:06;;;;;;;6.88;2.20;;;19.10;91.60;;;;;;5072383;28;20065;-65
2022/04/13 11:56:34;;;;;;;9.32;2.05;;;19.10;93.00;;;;;;5092234;28;20039;-66
2022/04/13 11:59:00;;;;;;;9.52;3.17;;;19.10;93.60;;;;;;5091148;28;20093;-67
2022/04/13 12:01:26;;;;;;;10.23;3.08;;;19.00;93.90;;;;;;5091080;28;20040;-66
2022/04/13 12:03:54;;;;;;;8.98;2.78;;;19.10;95.50;;;;;;5089397;28;20407;-66
2022/04/13 12:06:22;;;;;;;10.05;2.63;;;19.10;94.80;;;;;;5066985;28;20041;-66
2022/04/13 12:08:55;;;;;;;10.32;2.65;;;19.00;94.20;;;;;;5070641;28;20037;-66
2022/04/13 12:11:24;;;;;;;6.50;1.88;;;18.90;92.40;;;;;;5070389;28;20064;-65
2022/04/13 12:13:53;;;;;;;14.43;2.80;;;19.10;95.80;;;;;;5069057;28;20098;-65
2022/04/13 12:16:24;;;;;;;8.27;2.67;;;19.30;93.10;;;;;;5068575;28;20063;-65
2022/04/13 12:18:51;;;;;;;8.63;3.25;;;19.30;92.00;;;;;;5068500;28;20297;-65
2022/04/13 12:21:24;;;;;;;10.95;3.00;;;19.40;93.70;;;;;;5070524;28;20141;-66
2022/04/13 12:23:51;;;;;;;12.30;2.75;;;19.60;94.80;;;;;;5069788;28;20093;-66
2022/04/13 12:26:28;;;;;;;9.32;2.55;;;19.70;93.50;;;;;;5070471;28;20047;-65
2022/04/13 12:28:53;;;;;;;8.07;2.80;;;19.30;92.60;;;;;;5069501;28;20072;-65
2022/04/13 12:31:19;;;;;;;7.63;2.92;;;19.30;94.60;;;;;;5070678;28;20072;-65
2022/04/13 12:33:45;;;;;;;13.50;2.65;;;19.20;92.80;;;;;;5070779;28;20124;-65
2022/04/13 12:36:13;;;;;;;12.18;3.25;;;19.00;93.20;;;;;;5076884;28;20043;-65
2022/04/13 12:38:43;;;;;;;11.68;2.80;;;19.20;93.10;;;;;;5074396;28;20071;-65
2022/04/13 12:41:17;;;;;;;8.87;2.57;;;19.10;91.60;;;;;;5069120;28;20049;-65
2022/04/13 12:44:01;;;;;;;12.95;2.80;;;19.20;92.40;;;;;;5070597;28;20472;-65
2022/04/13 12:46:30;;;;;;;9.65;3.00;;;19.40;92.90;;;;;;5070223;28;20060;-66